Time;durP1;ratioP1;P1;durP2;ratioP2;P2;SDS_P1;SDS_P2;PMS_P1;PMS_P2;Temp;Humidity;BMP_temperature;BMP_pressure;BME280_temperature;BME280_humidity;BME280_pressure;Samples;Min_cycle;Max_cycle;Signal;HPM_P1;HPM_P2
2023/06/26 00:01:52;;;;;;;4.80;4.40;;;23.20;66.70;;;;;;10233416;28;20223;-69
2023/06/26 00:06:53;;;;;;;5.20;4.70;;;23.00;66.90;;;;;;10216451;28;20286;-70
2023/06/26 00:11:53;;;;;;;5.00;4.60;;;23.00;67.00;;;;;;10223007;28;20242;-71
2023/06/26 00:16:54;;;;;;;5.37;4.90;;;22.90;67.30;;;;;;10224036;28;20231;-70
2023/06/26 00:21:54;;;;;;;5.03;4.53;;;22.70;68.20;;;;;;10222802;28;20250;-69
2023/06/26 00:26:55;;;;;;;5.30;4.80;;;22.50;68.80;;;;;;10208899;28;20222;-69
2023/06/26 00:31:56;;;;;;;6.17;5.57;;;22.40;69.50;;;;;;10230124;28;20286;-70
2023/06/26 00:36:56;;;;;;;7.33;5.73;;;22.30;70.50;;;;;;10228286;28;20232;-71
2023/06/26 00:42:00;;;;;;;5.97;5.47;;;22.20;71.30;;;;;;10223782;28;20230;-69
2023/06/26 00:47:01;;;;;;;6.03;5.40;;;22.10;71.60;;;;;;10230332;28;20598;-70
2023/06/26 00:52:03;;;;;;;5.93;5.33;;;22.00;72.40;;;;;;10223265;28;20228;-69
2023/06/26 00:57:04;;;;;;;5.87;5.37;;;21.90;73.00;;;;;;10233467;28;20272;-70
2023/06/26 01:02:04;;;;;;;6.00;5.40;;;21.80;74.00;;;;;;10230547;28;20267;-74
2023/06/26 01:07:07;;;;;;;6.43;5.67;;;21.60;74.90;;;;;;10223331;28;20821;-74
2023/06/26 01:12:08;;;;;;;5.90;5.40;;;21.60;75.20;;;;;;10230840;28;20243;-74
2023/06/26 01:17:14;;;;;;;8.23;5.57;;;21.60;75.90;;;;;;10230150;28;20571;-75
2023/06/26 01:22:29;;;;;;;8.13;5.80;;;21.50;76.50;;;;;;10233126;28;20224;-75
2023/06/26 01:27:32;;;;;;;6.47;5.83;;;21.40;77.60;;;;;;10232849;28;20228;-74
2023/06/26 01:32:33;;;;;;;6.60;5.90;;;21.40;77.30;;;;;;10230335;28;20816;-74
2023/06/26 01:37:33;;;;;;;6.10;5.50;;;21.30;77.70;;;;;;10224584;28;20220;-74
2023/06/26 01:42:35;;;;;;;5.67;4.93;;;21.30;78.50;;;;;;10240260;28;20226;-73
2023/06/26 01:47:38;;;;;;;7.43;5.97;;;21.30;78.90;;;;;;10224288;28;20224;-73
2023/06/26 01:52:42;;;;;;;7.13;6.00;;;21.20;79.10;;;;;;10231359;28;20665;-74
2023/06/26 01:57:46;;;;;;;7.30;5.63;;;21.20;79.20;;;;;;10229226;28;20311;-74
2023/06/26 02:02:47;;;;;;;6.53;5.93;;;21.20;79.40;;;;;;10227062;28;20280;-75
2023/06/26 02:07:48;;;;;;;5.90;5.30;;;21.10;80.20;;;;;;10234236;28;20224;-76
2023/06/26 02:12:48;;;;;;;7.17;6.43;;;21.10;80.50;;;;;;10226889;28;20318;-73
2023/06/26 02:17:49;;;;;;;6.80;6.10;;;20.90;80.90;;;;;;10222885;28;20227;-74
2023/06/26 02:22:49;;;;;;;5.93;5.30;;;20.90;81.70;;;;;;10227129;28;20223;-74
2023/06/26 02:27:50;;;;;;;7.60;6.23;;;20.80;82.10;;;;;;10223000;28;20758;-75
2023/06/26 02:32:50;;;;;;;5.97;5.40;;;20.80;82.70;;;;;;10227155;28;20242;-74
2023/06/26 02:37:51;;;;;;;6.47;5.87;;;20.80;82.80;;;;;;10228161;28;20211;-73
2023/06/26 02:42:51;;;;;;;6.80;6.10;;;20.70;83.00;;;;;;10228258;28;20224;-75
2023/06/26 02:47:52;;;;;;;6.20;5.60;;;20.70;83.80;;;;;;10221242;28;20772;-74
2023/06/26 02:52:52;;;;;;;6.33;5.73;;;20.60;84.70;;;;;;10224793;28;20314;-74
2023/06/26 02:57:56;;;;;;;6.83;6.20;;;20.60;84.70;;;;;;10219487;28;20703;-74
2023/06/26 03:02:57;;;;;;;7.40;6.70;;;20.60;84.30;;;;;;10225846;28;20337;-74
2023/06/26 03:07:57;;;;;;;7.10;6.40;;;20.50;84.40;;;;;;10234830;28;20323;-74
2023/06/26 03:12:58;;;;;;;9.00;8.10;;;20.50;84.90;;;;;;10230677;28;20271;-74
2023/06/26 03:17:58;;;;;;;8.80;6.67;;;20.40;85.60;;;;;;10228866;28;20289;-74
2023/06/26 03:22:59;;;;;;;7.53;6.80;;;20.40;86.00;;;;;;10219420;28;20634;-73
2023/06/26 03:27:59;;;;;;;7.87;7.07;;;20.40;86.20;;;;;;10225241;28;20219;-73
2023/06/26 03:33:00;;;;;;;7.40;6.70;;;20.40;86.50;;;;;;10231000;28;20228;-73
2023/06/26 03:38:01;;;;;;;7.50;6.80;;;20.30;86.80;;;;;;10225063;28;20255;-74
2023/06/26 03:43:02;;;;;;;8.37;6.63;;;20.40;86.80;;;;;;10225969;28;20736;-73
2023/06/26 03:48:03;;;;;;;7.40;6.40;;;20.40;86.30;;;;;;10232177;28;20363;-74
2023/06/26 03:53:03;;;;;;;9.03;6.60;;;20.40;85.90;;;;;;10232387;28;20269;-74
2023/06/26 03:58:04;;;;;;;17.40;7.17;;;20.50;85.60;;;;;;10227209;28;20227;-74
2023/06/26 04:03:05;;;;;;;7.07;6.27;;;20.60;85.10;;;;;;10218023;28;20232;-73
2023/06/26 04:08:05;;;;;;;8.57;6.53;;;20.70;84.30;;;;;;10242552;28;20306;-73
2023/06/26 04:13:06;;;;;;;7.10;6.10;;;20.90;83.60;;;;;;10230283;28;20227;-74
2023/06/26 04:18:07;;;;;;;8.13;5.87;;;21.00;83.10;;;;;;10231223;28;20224;-74
2023/06/26 04:23:07;;;;;;;10.20;6.73;;;21.10;82.60;;;;;;10237919;28;20562;-73
2023/06/26 04:28:08;;;;;;;6.63;5.90;;;21.20;82.60;;;;;;10241795;28;20239;-73
2023/06/26 04:33:11;;;;;;;7.00;6.13;;;21.30;82.60;;;;;;10230806;28;20339;-74
2023/06/26 04:38:12;;;;;;;6.50;5.90;;;21.40;82.20;;;;;;10237986;28;20230;-74
2023/06/26 04:43:13;;;;;;;6.60;6.00;;;21.70;81.70;;;;;;10229740;28;20246;-74
2023/06/26 04:48:13;;;;;;;7.87;6.03;;;21.90;80.20;;;;;;10237563;28;20721;-73
2023/06/26 04:53:14;;;;;;;8.33;6.10;;;22.00;80.00;;;;;;10236726;28;20227;-74
2023/06/26 04:58:14;;;;;;;73.57;10.27;;;22.10;79.20;;;;;;10245800;28;20645;-75
2023/06/26 05:03:17;;;;;;;7.43;6.30;;;22.30;78.20;;;;;;10242507;28;20655;-74
2023/06/26 05:08:21;;;;;;;7.83;6.20;;;22.60;77.80;;;;;;10231049;28;20228;-74
2023/06/26 05:13:26;;;;;;;8.27;5.87;;;25.40;70.50;;;;;;10240680;28;20235;-75
2023/06/26 05:18:26;;;;;;;6.37;5.70;;;28.40;60.00;;;;;;10231850;28;20698;-74
2023/06/26 05:23:30;;;;;;;7.40;5.50;;;30.70;55.20;;;;;;10228978;28;20224;-75
2023/06/26 05:28:31;;;;;;;8.17;6.17;;;32.10;51.70;;;;;;10235522;28;20219;-74
2023/06/26 05:33:35;;;;;;;6.87;6.17;;;32.90;49.50;;;;;;10227022;28;20228;-75
2023/06/26 05:38:36;;;;;;;12.90;5.90;;;33.80;47.40;;;;;;10233444;28;20216;-74
2023/06/26 05:43:36;;;;;;;13.37;6.87;;;34.60;45.90;;;;;;10229456;28;20223;-75
2023/06/26 05:48:37;;;;;;;8.17;6.63;;;35.20;44.40;;;;;;10236826;28;20301;-73
2023/06/26 05:53:38;;;;;;;12.50;6.57;;;35.50;43.80;;;;;;10231263;28;20239;-74
2023/06/26 05:58:40;;;;;;;14.03;6.47;;;35.80;42.50;;;;;;10226160;28;20238;-74
2023/06/26 06:03:41;;;;;;;10.33;5.87;;;35.90;42.80;;;;;;10228130;28;20228;-73
2023/06/26 06:08:42;;;;;;;7.43;5.80;;;36.50;42.00;;;;;;10231066;28;20224;-74
2023/06/26 06:13:42;;;;;;;11.93;6.60;;;37.00;41.50;;;;;;10232269;28;20289;-74
2023/06/26 06:18:43;;;;;;;7.27;6.03;;;37.60;41.20;;;;;;10232416;28;20670;-74
2023/06/26 06:23:43;;;;;;;10.87;6.20;;;38.20;40.30;;;;;;10224881;28;20259;-73
2023/06/26 06:28:44;;;;;;;8.50;6.30;;;38.50;40.20;;;;;;10229368;28;20278;-74
2023/06/26 06:33:45;;;;;;;8.03;6.60;;;38.90;39.20;;;;;;10231859;28;20318;-74
2023/06/26 06:38:45;;;;;;;6.90;6.27;;;39.10;38.50;;;;;;10232737;28;20694;-74
2023/06/26 06:43:47;;;;;;;7.13;6.37;;;39.10;38.20;;;;;;10228961;28;20626;-74
2023/06/26 06:48:48;;;;;;;6.40;5.80;;;39.50;38.10;;;;;;10237424;28;20219;-74
2023/06/26 06:53:53;;;;;;;9.73;5.97;;;39.80;37.80;;;;;;10225596;28;20239;-74
2023/06/26 06:58:53;;;;;;;6.77;6.17;;;40.50;36.40;;;;;;10226498;28;20613;-75
2023/06/26 07:03:54;;;;;;;9.50;6.33;;;40.80;36.20;;;;;;10224737;28;20285;-74
2023/06/26 07:08:55;;;;;;;8.60;6.37;;;41.30;35.20;;;;;;10233314;28;20230;-74
2023/06/26 07:13:58;;;;;;;16.70;7.13;;;41.60;33.80;;;;;;10227056;28;20586;-75
2023/06/26 07:18:58;;;;;;;6.70;6.20;;;41.90;33.80;;;;;;10218317;28;20227;-75
2023/06/26 07:23:59;;;;;;;10.18;6.38;;;42.20;33.20;;;;;;10227143;28;20665;-74
2023/06/26 07:29:00;;;;;;;7.30;6.00;;;42.50;32.70;;;;;;10226674;28;20282;-74
2023/06/26 07:34:00;;;;;;;6.50;5.90;;;42.60;32.10;;;;;;10226069;28;20231;-75
2023/06/26 07:39:01;;;;;;;8.38;6.05;;;42.10;33.00;;;;;;10219176;28;20240;-74
2023/06/26 07:44:02;;;;;;;9.30;5.82;;;42.80;32.60;;;;;;10223409;28;20281;-74
2023/06/26 07:49:02;;;;;;;8.93;6.28;;;43.70;32.10;;;;;;10218428;28;20278;-74
2023/06/26 07:54:03;;;;;;;6.85;5.93;;;44.00;30.90;;;;;;10232864;28;20558;-74
2023/06/26 07:59:04;;;;;;;6.70;6.10;;;44.10;31.20;;;;;;10238748;28;20225;-74
2023/06/26 08:04:04;;;;;;;8.30;6.47;;;44.10;31.70;;;;;;10232200;28;20227;-76
2023/06/26 08:09:06;;;;;;;16.48;6.85;;;44.00;31.30;;;;;;10224302;28;20216;-75
2023/06/26 08:14:06;;;;;;;7.47;6.53;;;44.10;31.40;;;;;;10232210;28;20231;-73
2023/06/26 08:19:08;;;;;;;9.63;6.75;;;43.70;31.10;;;;;;10233583;28;20234;-75
2023/06/26 08:24:08;;;;;;;8.40;6.85;;;44.10;30.90;;;;;;10218013;28;20224;-75
2023/06/26 08:29:09;;;;;;;8.63;6.50;;;44.60;30.10;;;;;;10231848;28;20234;-76
2023/06/26 08:34:09;;;;;;;7.53;6.05;;;44.90;29.90;;;;;;10224987;28;20290;-75
2023/06/26 08:39:10;;;;;;;7.43;6.73;;;43.20;31.10;;;;;;10235124;28;20223;-76
2023/06/26 08:44:11;;;;;;;6.33;5.73;;;41.90;33.60;;;;;;10218851;28;20314;-74
2023/06/26 08:49:20;;;;;;;7.87;6.20;;;42.70;32.70;;;;;;10223149;28;20215;-75
2023/06/26 08:54:28;;;;;;;6.60;5.90;;;41.90;32.80;;;;;;10216691;28;20311;-74
2023/06/26 08:59:29;;;;;;;7.90;5.70;;;40.30;35.60;;;;;;10240521;28;20583;-74
2023/06/26 09:04:30;;;;;;;20.13;7.28;;;41.80;34.40;;;;;;10227432;28;20318;-74
2023/06/26 09:09:31;;;;;;;8.10;6.70;;;43.80;32.00;;;;;;10233622;28;20219;-74
2023/06/26 09:14:32;;;;;;;5.70;5.05;;;44.50;30.90;;;;;;10227541;28;20243;-76
2023/06/26 09:19:35;;;;;;;16.20;5.05;;;44.60;31.00;;;;;;10252114;28;20273;-76
2023/06/26 09:24:36;;;;;;;11.27;5.10;;;45.60;28.90;;;;;;10230433;28;20231;-75
2023/06/26 09:29:37;;;;;;;16.33;5.97;;;46.10;28.30;;;;;;10222400;28;20219;-76
2023/06/26 09:34:41;;;;;;;8.82;5.00;;;45.90;28.10;;;;;;10232669;28;20228;-75
2023/06/26 09:39:42;;;;;;;6.30;5.20;;;45.80;28.50;;;;;;10226464;28;20231;-76
2023/06/26 09:44:47;;;;;;;5.57;5.07;;;46.50;27.90;;;;;;10230670;28;20228;-75
2023/06/26 09:49:48;;;;;;;11.52;6.00;;;46.50;28.00;;;;;;10226318;28;20223;-75
2023/06/26 09:54:48;;;;;;;25.40;5.95;;;47.50;27.50;;;;;;10235521;28;20235;-78
2023/06/26 09:59:49;;;;;;;5.75;5.25;;;47.50;27.30;;;;;;10234899;28;20219;-75
2023/06/26 10:04:50;;;;;;;5.97;5.47;;;46.90;28.30;;;;;;10227852;28;20293;-73
2023/06/26 10:09:55;;;;;;;6.70;5.03;;;46.50;28.00;;;;;;10222523;28;20273;-74
2023/06/26 10:14:57;;;;;;;6.13;5.47;;;43.50;30.60;;;;;;10227710;28;20592;-74
2023/06/26 10:20:00;;;;;;;7.57;5.10;;;40.50;34.00;;;;;;10234948;28;20219;-73
2023/06/26 10:25:07;;;;;;;8.70;5.30;;;38.40;37.00;;;;;;10219456;28;20228;-73
2023/06/26 10:30:20;;;;;;;22.43;5.60;;;38.20;38.10;;;;;;10219728;28;20216;-74
2023/06/26 10:35:21;;;;;;;9.47;4.57;;;39.60;37.00;;;;;;10225391;28;20223;-74
2023/06/26 10:40:39;;;;;;;9.17;4.83;;;39.40;36.30;;;;;;10239731;28;20223;-73
2023/06/26 10:45:52;;;;;;;7.80;5.00;;;39.80;35.70;;;;;;10229125;28;20228;-72
2023/06/26 10:50:53;;;;;;;5.83;4.57;;;38.10;37.80;;;;;;10219183;28;20220;-74
2023/06/26 10:56:02;;;;;;;8.53;4.93;;;37.20;39.60;;;;;;10226580;28;20258;-73
2023/06/26 11:01:12;;;;;;;8.03;4.63;;;37.30;39.60;;;;;;10226373;28;20284;-73
2023/06/26 11:06:14;;;;;;;5.37;4.50;;;38.70;38.00;;;;;;10219262;28;20302;-74
2023/06/26 11:11:15;;;;;;;7.40;5.10;;;40.00;35.90;;;;;;10236637;28;20226;-74
2023/06/26 11:16:16;;;;;;;9.93;4.97;;;42.40;33.20;;;;;;10231649;28;20276;-74
2023/06/26 11:21:21;;;;;;;7.83;5.20;;;43.60;31.50;;;;;;10226029;28;20343;-72
2023/06/26 11:26:22;;;;;;;6.10;5.00;;;44.20;31.30;;;;;;10218402;28;20227;-74
2023/06/26 11:31:32;;;;;;;5.37;4.70;;;43.10;31.50;;;;;;10229982;28;20222;-75
2023/06/26 11:36:37;;;;;;;16.40;4.70;;;40.90;34.10;;;;;;10227927;28;20596;-74
2023/06/26 11:41:39;;;;;;;5.17;4.67;;;40.40;34.60;;;;;;10221514;28;20235;-73
2023/06/26 11:46:40;;;;;;;5.53;5.00;;;38.80;36.60;;;;;;10222288;28;20223;-74
2023/06/26 11:51:43;;;;;;;14.30;4.97;;;37.80;38.20;;;;;;10229642;28;20599;-74
2023/06/26 11:56:52;;;;;;;8.57;5.20;;;36.80;37.70;;;;;;10220970;28;20239;-73
2023/06/26 12:01:53;;;;;;;7.30;5.70;;;36.10;38.90;;;;;;10234204;28;20243;-74
2023/06/26 12:06:57;;;;;;;11.10;6.40;;;35.70;39.50;;;;;;10225555;28;20306;-74
2023/06/26 12:11:58;;;;;;;11.37;5.83;;;35.40;38.90;;;;;;10218229;28;20228;-75
2023/06/26 12:17:12;;;;;;;6.97;6.03;;;35.00;39.50;;;;;;10223561;28;20252;-74
2023/06/26 12:22:12;;;;;;;48.50;11.23;;;34.80;39.60;;;;;;10224603;28;20296;-72
2023/06/26 12:27:14;;;;;;;15.60;6.57;;;34.40;40.00;;;;;;10217825;28;20228;-73
2023/06/26 12:32:15;;;;;;;13.40;6.70;;;34.20;40.20;;;;;;10233481;28;20760;-74
2023/06/26 12:37:16;;;;;;;15.40;7.43;;;34.30;40.10;;;;;;10224945;28;20218;-74
2023/06/26 12:42:21;;;;;;;47.63;8.60;;;34.20;39.80;;;;;;10233476;28;20235;-74
2023/06/26 12:47:29;;;;;;;11.50;7.27;;;34.10;39.60;;;;;;10228881;28;20353;-74
2023/06/26 12:52:29;;;;;;;18.10;8.60;;;34.10;39.90;;;;;;10232574;28;20304;-74
2023/06/26 12:57:30;;;;;;;8.77;7.40;;;34.00;39.80;;;;;;10226487;28;20370;-74
2023/06/26 13:02:30;;;;;;;14.87;7.77;;;34.00;39.60;;;;;;10231401;28;20225;-74
2023/06/26 13:07:31;;;;;;;15.03;6.43;;;34.00;39.00;;;;;;10232235;28;20230;-74
2023/06/26 13:12:31;;;;;;;11.97;6.17;;;33.80;38.30;;;;;;10225566;28;20220;-74
2023/06/26 13:17:32;;;;;;;9.40;6.20;;;33.60;38.70;;;;;;10231922;28;20219;-74
2023/06/26 13:22:32;;;;;;;7.07;5.70;;;33.90;38.30;;;;;;10230325;28;20238;-74
2023/06/26 13:27:33;;;;;;;5.93;4.43;;;33.90;37.30;;;;;;10226287;28;20308;-74
2023/06/26 13:32:34;;;;;;;7.60;4.03;;;34.00;37.10;;;;;;10225997;28;20270;-73
2023/06/26 13:37:34;;;;;;;6.30;4.30;;;34.00;36.90;;;;;;10226356;28;20224;-75
2023/06/26 13:42:36;;;;;;;9.53;4.43;;;33.90;36.30;;;;;;10231852;28;20360;-74
2023/06/26 13:47:40;;;;;;;14.50;5.37;;;33.90;42.20;;;;;;10231317;28;20312;-74
2023/06/26 13:52:41;;;;;;;14.63;5.30;;;34.00;45.40;;;;;;10233132;28;20269;-74
2023/06/26 13:57:41;;;;;;;6.00;4.60;;;34.00;45.80;;;;;;10236507;28;20281;-75
2023/06/26 14:02:46;;;;;;;8.20;4.73;;;33.50;46.30;;;;;;10233047;28;20268;-74
2023/06/26 14:07:47;;;;;;;8.27;4.73;;;33.00;46.60;;;;;;10233190;28;20376;-74
2023/06/26 14:12:48;;;;;;;7.40;4.60;;;33.00;47.60;;;;;;10226167;28;20964;-73
2023/06/26 14:17:50;;;;;;;7.30;4.40;;;33.20;47.50;;;;;;10227933;28;20250;-73
2023/06/26 14:22:50;;;;;;;5.33;3.47;;;33.20;47.00;;;;;;10221610;28;20243;-73
2023/06/26 14:27:51;;;;;;;7.43;3.40;;;32.90;43.50;;;;;;10219378;28;20219;-74
2023/06/26 14:32:52;;;;;;;9.43;3.97;;;33.20;43.60;;;;;;10232772;28;20215;-74
2023/06/26 14:37:55;;;;;;;7.97;4.23;;;33.00;44.80;;;;;;10220964;28;20227;-74
2023/06/26 14:42:58;;;;;;;6.43;2.90;;;33.00;45.00;;;;;;10226201;28;20251;-73
2023/06/26 14:47:59;;;;;;;4.63;2.77;;;32.90;37.40;;;;;;10219929;28;20248;-73
2023/06/26 14:53:00;;;;;;;10.00;3.33;;;32.60;36.40;;;;;;10239506;28;20278;-74
2023/06/26 14:58:00;;;;;;;14.50;4.30;;;32.20;37.30;;;;;;10225834;28;20266;-74
2023/06/26 15:03:01;;;;;;;7.20;3.53;;;32.00;35.90;;;;;;10219104;28;20719;-74
2023/06/26 15:08:01;;;;;;;7.40;3.10;;;32.10;42.70;;;;;;10226207;28;20691;-74
2023/06/26 15:13:02;;;;;;;5.63;3.10;;;31.90;45.90;;;;;;10232591;28;20227;-75
2023/06/26 15:18:04;;;;;;;5.00;2.83;;;31.50;46.40;;;;;;10218416;28;20220;-74
2023/06/26 15:23:05;;;;;;;5.37;2.90;;;31.20;46.90;;;;;;10232271;28;20238;-74
2023/06/26 15:28:06;;;;;;;19.73;2.97;;;31.10;46.40;;;;;;10216507;28;20212;-73
2023/06/26 15:33:07;;;;;;;4.60;2.77;;;30.70;45.60;;;;;;10223715;28;20285;-73
2023/06/26 15:38:07;;;;;;;3.50;2.20;;;30.50;45.70;;;;;;10217318;28;20274;-74
2023/06/26 15:43:08;;;;;;;6.63;2.23;;;30.50;45.00;;;;;;10223723;28;20236;-73
2023/06/26 15:48:09;;;;;;;6.50;2.97;;;30.30;45.40;;;;;;10230958;28;20315;-74
2023/06/26 15:53:09;;;;;;;3.83;2.30;;;30.10;45.90;;;;;;10216809;28;20232;-74
2023/06/26 15:58:10;;;;;;;7.53;2.30;;;30.00;46.10;;;;;;10230067;28;20219;-74
2023/06/26 16:03:10;;;;;;;4.33;2.33;;;30.00;46.00;;;;;;10223730;28;20728;-74
2023/06/26 16:08:12;;;;;;;10.03;2.23;;;29.80;45.60;;;;;;10221911;28;20234;-74
2023/06/26 16:13:12;;;;;;;4.57;2.13;;;29.50;46.00;;;;;;10229376;28;20462;-74
2023/06/26 16:18:13;;;;;;;3.80;2.20;;;29.40;45.90;;;;;;10217107;28;20302;-74
2023/06/26 16:23:14;;;;;;;6.10;2.03;;;29.10;46.60;;;;;;10225380;28;20263;-74
2023/06/26 16:28:15;;;;;;;6.53;2.00;;;28.80;46.80;;;;;;10215735;28;20218;-74
2023/06/26 16:33:18;;;;;;;5.90;2.27;;;28.60;45.80;;;;;;10222606;28;20258;-75
2023/06/26 16:38:19;;;;;;;5.90;2.73;;;28.50;46.20;;;;;;10217781;28;20307;-74
2023/06/26 16:43:19;;;;;;;5.97;2.30;;;28.40;46.20;;;;;;10230605;28;20227;-73
2023/06/26 16:48:20;;;;;;;7.13;1.90;;;28.30;46.50;;;;;;10223923;28;20273;-74
2023/06/26 16:53:21;;;;;;;21.53;2.60;;;28.10;46.90;;;;;;10228487;28;20227;-74
2023/06/26 16:58:21;;;;;;;22.63;3.70;;;27.90;47.30;;;;;;10224731;28;20252;-73
2023/06/26 17:03:22;;;;;;;6.50;2.57;;;27.70;47.20;;;;;;10219891;28;20238;-74
2023/06/26 17:08:22;;;;;;;9.07;2.27;;;27.60;47.30;;;;;;10217120;28;20216;-74
2023/06/26 17:13:23;;;;;;;6.90;2.43;;;27.40;47.70;;;;;;10230025;28;20231;-74
2023/06/26 17:18:24;;;;;;;5.87;2.10;;;27.20;48.00;;;;;;10227183;28;20224;-75
2023/06/26 17:23:24;;;;;;;7.77;2.10;;;27.20;48.30;;;;;;10229306;28;20253;-73
2023/06/26 17:28:25;;;;;;;14.57;3.63;;;27.10;48.00;;;;;;10226807;28;20230;-74
2023/06/26 17:33:25;;;;;;;6.97;2.13;;;27.00;48.00;;;;;;10230672;28;20222;-73
2023/06/26 17:38:27;;;;;;;9.37;2.30;;;26.80;47.90;;;;;;10223731;28;20227;-73
2023/06/26 17:43:28;;;;;;;5.57;2.10;;;26.70;48.20;;;;;;10226230;28;20235;-74
2023/06/26 17:48:28;;;;;;;5.00;2.07;;;26.50;48.10;;;;;;10223709;28;20259;-75
2023/06/26 17:53:29;;;;;;;6.97;2.07;;;26.30;48.30;;;;;;10233734;28;20243;-75
2023/06/26 17:58:29;;;;;;;3.30;1.97;;;26.20;48.30;;;;;;10230398;28;20227;-76
2023/06/26 18:03:30;;;;;;;6.20;2.20;;;25.90;48.00;;;;;;10229892;28;20227;-75
2023/06/26 18:08:31;;;;;;;5.80;1.83;;;25.70;48.30;;;;;;10225157;28;20226;-74
2023/06/26 18:13:32;;;;;;;3.90;1.80;;;25.50;48.70;;;;;;10228783;28;20224;-74
2023/06/26 18:18:33;;;;;;;5.87;2.10;;;25.40;49.20;;;;;;10231506;28;20212;-74
2023/06/26 18:23:33;;;;;;;6.73;1.90;;;25.30;49.40;;;;;;10224270;28;20333;-74
2023/06/26 18:28:34;;;;;;;6.07;2.10;;;25.20;51.40;;;;;;10229606;28;20219;-74
2023/06/26 18:33:35;;;;;;;9.33;2.33;;;25.00;52.20;;;;;;10229317;28;20724;-75
2023/06/26 18:38:36;;;;;;;6.27;2.10;;;25.00;52.40;;;;;;10218891;28;20220;-74
2023/06/26 18:43:36;;;;;;;3.50;2.00;;;24.90;52.80;;;;;;10223351;28;20224;-74
2023/06/26 18:48:37;;;;;;;4.40;1.80;;;24.80;52.90;;;;;;10223673;28;20223;-75
2023/06/26 18:53:40;;;;;;;3.10;1.83;;;24.70;52.90;;;;;;10227229;28;20702;-73
2023/06/26 18:58:41;;;;;;;6.23;2.10;;;24.60;52.90;;;;;;10234200;28;20314;-75
2023/06/26 19:03:42;;;;;;;5.07;2.00;;;24.50;53.00;;;;;;10233709;28;20818;-74
2023/06/26 19:08:42;;;;;;;10.53;1.97;;;24.40;52.90;;;;;;10233167;28;20235;-73
2023/06/26 19:13:45;;;;;;;6.30;1.77;;;24.20;52.80;;;;;;10219851;28;20255;-74
2023/06/26 19:18:45;;;;;;;3.43;1.60;;;24.00;52.60;;;;;;10224887;28;20360;-74
2023/06/26 19:23:46;;;;;;;4.37;1.70;;;23.90;52.90;;;;;;10224023;28;20314;-74
2023/06/26 19:28:46;;;;;;;4.43;2.23;;;23.80;53.20;;;;;;10222604;28;20241;-73
2023/06/26 19:33:47;;;;;;;5.63;1.80;;;23.70;53.40;;;;;;10221234;28;20282;-74
2023/06/26 19:38:48;;;;;;;8.03;2.00;;;23.60;53.70;;;;;;10222680;28;20245;-74
2023/06/26 19:43:48;;;;;;;4.83;1.60;;;23.50;53.80;;;;;;10234255;28;20215;-73
2023/06/26 19:48:49;;;;;;;5.63;1.87;;;23.50;54.10;;;;;;10218857;28;20333;-74
2023/06/26 19:53:49;;;;;;;3.47;1.93;;;23.40;54.30;;;;;;10228066;28;20718;-74
2023/06/26 19:58:50;;;;;;;3.87;2.00;;;23.30;54.50;;;;;;10234784;28;20310;-74
2023/06/26 20:03:50;;;;;;;4.13;1.80;;;23.30;54.80;;;;;;10217280;28;20226;-74
2023/06/26 20:08:51;;;;;;;4.80;1.83;;;23.20;54.50;;;;;;10224906;28;20323;-73
2023/06/26 20:13:51;;;;;;;4.73;1.90;;;23.20;54.80;;;;;;10230664;28;20594;-74
2023/06/26 20:18:52;;;;;;;5.10;1.73;;;23.10;54.70;;;;;;10218834;28;20703;-73
2023/06/26 20:23:52;;;;;;;5.87;1.80;;;23.00;54.80;;;;;;10225026;28;20216;-74
2023/06/26 20:28:56;;;;;;;10.23;2.30;;;22.90;55.30;;;;;;10223989;28;20235;-74
2023/06/26 20:33:57;;;;;;;6.30;1.77;;;22.90;55.00;;;;;;10223494;28;20281;-74
2023/06/26 20:38:58;;;;;;;4.67;1.83;;;22.90;55.10;;;;;;10229943;28;20219;-74
2023/06/26 20:43:58;;;;;;;8.23;2.37;;;22.80;55.40;;;;;;10223733;28;20223;-74
2023/06/26 20:48:59;;;;;;;5.10;1.60;;;22.80;55.00;;;;;;10230788;28;20217;-75
2023/06/26 20:54:00;;;;;;;4.83;2.10;;;22.70;55.10;;;;;;10228377;28;20232;-73
2023/06/26 20:59:01;;;;;;;5.00;2.03;;;22.60;55.30;;;;;;10232556;28;20229;-74
2023/06/26 21:04:01;;;;;;;4.13;1.60;;;22.60;55.40;;;;;;10224505;28;20279;-74
2023/06/26 21:09:08;;;;;;;4.20;1.93;;;22.50;55.30;;;;;;10247541;28;20226;-73
2023/06/26 21:14:10;;;;;;;8.57;1.97;;;22.60;55.80;;;;;;10223390;28;20224;-74
2023/06/26 21:19:10;;;;;;;4.03;1.50;;;22.50;55.40;;;;;;10237006;28;20229;-75
2023/06/26 21:24:11;;;;;;;2.30;1.70;;;22.50;55.70;;;;;;10229369;28;20312;-75
2023/06/26 21:29:11;;;;;;;4.87;1.73;;;22.50;55.60;;;;;;10228261;28;20247;-74
2023/06/26 21:34:12;;;;;;;3.10;1.70;;;22.40;55.80;;;;;;10230242;28;20255;-74
2023/06/26 21:39:13;;;;;;;3.07;1.57;;;22.40;55.80;;;;;;10229882;28;20222;-74
2023/06/26 21:44:13;;;;;;;3.10;1.57;;;22.30;55.80;;;;;;10223334;28;20266;-74
2023/06/26 21:49:14;;;;;;;4.50;1.77;;;22.30;56.10;;;;;;10240127;28;20219;-73
2023/06/26 21:54:14;;;;;;;2.17;1.67;;;22.20;56.20;;;;;;10222518;28;20599;-75
2023/06/26 21:59:15;;;;;;;2.70;1.50;;;22.10;56.40;;;;;;10228444;28;20227;-74
2023/06/26 22:04:16;;;;;;;4.27;1.83;;;22.00;57.30;;;;;;10245815;28;20237;-74
2023/06/26 22:09:16;;;;;;;6.17;1.57;;;21.90;56.70;;;;;;10229332;28;20255;-74
2023/06/26 22:14:17;;;;;;;3.90;1.60;;;21.90;57.10;;;;;;10227861;28;20279;-74
2023/06/26 22:19:17;;;;;;;3.67;1.40;;;21.90;57.10;;;;;;10226509;28;20226;-75
2023/06/26 22:24:18;;;;;;;4.77;2.23;;;21.90;57.40;;;;;;10229012;28;20334;-74
2023/06/26 22:29:22;;;;;;;4.07;1.30;;;21.80;57.30;;;;;;10228271;28;20246;-74
2023/06/26 22:34:22;;;;;;;2.87;1.77;;;21.70;57.60;;;;;;10226199;28;20245;-74
2023/06/26 22:39:23;;;;;;;5.27;1.80;;;21.70;57.70;;;;;;10228165;28;20223;-74
2023/06/26 22:44:24;;;;;;;4.43;1.80;;;21.50;58.40;;;;;;10225444;28;20250;-74
2023/06/26 22:49:27;;;;;;;1.93;1.73;;;21.40;58.30;;;;;;10228988;28;20301;-74
2023/06/26 22:54:27;;;;;;;4.87;1.67;;;21.30;58.80;;;;;;10227499;28;20791;-73
2023/06/26 22:59:28;;;;;;;2.73;1.80;;;21.10;59.60;;;;;;10235068;28;20212;-76
2023/06/26 23:04:28;;;;;;;4.00;1.60;;;21.00;60.20;;;;;;10221982;28;20642;-75
2023/06/26 23:09:29;;;;;;;3.70;1.50;;;20.90;60.60;;;;;;10224300;28;20315;-74
2023/06/26 23:14:30;;;;;;;4.57;1.67;;;20.70;60.50;;;;;;10234463;28;20235;-73
2023/06/26 23:19:31;;;;;;;3.93;1.60;;;20.60;60.80;;;;;;10233210;28;20233;-74
2023/06/26 23:24:32;;;;;;;3.77;1.40;;;20.60;61.00;;;;;;10221123;28;20224;-73
2023/06/26 23:29:37;;;;;;;4.83;1.70;;;20.50;61.30;;;;;;10226092;28;20261;-74
2023/06/26 23:34:38;;;;;;;2.40;1.47;;;20.30;61.90;;;;;;10221826;28;20235;-74
2023/06/26 23:39:40;;;;;;;4.57;1.53;;;20.30;62.40;;;;;;10222560;28;20572;-74
2023/06/26 23:44:40;;;;;;;4.13;1.70;;;20.20;62.90;;;;;;10221828;28;20231;-73
2023/06/26 23:49:41;;;;;;;3.33;1.60;;;20.10;63.80;;;;;;10224709;28;20216;-73
2023/06/26 23:54:42;;;;;;;3.40;1.50;;;20.00;64.50;;;;;;10234938;28;20693;-74
2023/06/26 23:59:42;;;;;;;2.70;1.50;;;19.90;64.90;;;;;;10222269;28;20313;-74
